Time,TemperatureF,DewpointF,PressureIn,WindDirection,WindDirectionDegrees,WindSpeedMPH,WindSpeedGustMPH,Humidity,HourlyPrecipIn,Conditions,Clouds,dailyrainin,SoftwareType,DateUTC
2013-10-28 00:01:00,53.8,46.0,29.73,WNW,283,12.0,19.0,75,0.00,,,0.00,meteohub,2013-10-28 07:01:00,
2013-10-28 00:06:00,53.8,46.0,29.73,West,260,9.0,19.0,75,0.00,,,0.00,meteohub,2013-10-28 07:06:00,
2013-10-28 00:11:00,53.6,46.2,29.73,West,280,6.0,19.0,76,0.00,,,0.00,meteohub,2013-10-28 07:11:00,
2013-10-28 00:16:00,53.6,46.2,29.73,WSW,252,9.0,18.0,76,0.00,,,0.00,meteohub,2013-10-28 07:16:00,
2013-10-28 00:21:00,53.4,46.4,29.73,WSW,254,7.0,17.0,77,0.00,,,0.00,meteohub,2013-10-28 07:21:00,
2013-10-28 00:26:00,53.2,46.2,29.73,West,260,5.0,17.0,77,0.00,,,0.00,meteohub,2013-10-28 07:26:00,
2013-10-28 00:31:00,53.2,46.6,29.73,West,266,7.0,14.0,78,0.00,,,0.00,meteohub,2013-10-28 07:31:00,
2013-10-28 00:36:00,53.1,46.4,29.73,West,270,8.0,12.0,78,0.00,,,0.00,meteohub,2013-10-28 07:36:00,
2013-10-28 00:41:00,53.1,46.8,29.73,West,263,9.0,11.0,79,0.00,,,0.00,meteohub,2013-10-28 07:41:00,
2013-10-28 00:46:00,52.9,46.6,29.73,West,280,10.0,14.0,79,0.00,,,0.00,meteohub,2013-10-28 07:46:00,
2013-10-28 00:51:00,52.9,46.6,29.73,West,272,13.0,17.0,79,0.00,,,0.00,meteohub,2013-10-28 07:51:00,
2013-10-28 00:56:00,52.9,46.6,29.73,WNW,282,15.0,17.0,79,0.00,,,0.00,meteohub,2013-10-28 07:56:00,
2013-10-28 01:01:00,52.9,46.6,29.73,West,277,11.0,21.0,79,0.00,,,0.00,meteohub,2013-10-28 08:01:00,
2013-10-28 01:06:00,52.7,46.8,29.73,West,274,8.0,21.0,80,0.00,,,0.00,meteohub,2013-10-28 08:06:00,
2013-10-28 01:11:00,52.7,46.8,29.73,West,280,11.0,20.0,80,0.00,,,0.00,meteohub,2013-10-28 08:11:00,
2013-10-28 01:16:00,52.7,46.8,29.73,West,276,8.0,17.0,80,0.00,,,0.00,meteohub,2013-10-28 08:16:00,
2013-10-28 01:21:00,52.5,46.6,29.73,West,278,9.0,17.0,80,0.00,,,0.00,meteohub,2013-10-28 08:21:00,
2013-10-28 01:26:00,52.5,46.9,29.73,West,279,7.0,16.0,81,0.00,,,0.00,meteohub,2013-10-28 08:26:00,
2013-10-28 01:31:00,52.5,46.9,29.73,West,264,9.0,12.0,81,0.00,,,0.00,meteohub,2013-10-28 08:31:00,
2013-10-28 01:36:00,52.3,46.8,29.73,WNW,285,8.0,13.0,81,0.00,,,0.00,meteohub,2013-10-28 08:36:00,
2013-10-28 01:41:00,52.5,46.9,29.73,WNW,287,10.0,16.0,81,0.00,,,0.00,meteohub,2013-10-28 08:41:00,
2013-10-28 01:46:00,52.5,46.6,29.73,West,279,8.0,16.0,80,0.00,,,0.00,meteohub,2013-10-28 08:46:00,
2013-10-28 01:51:00,52.5,46.6,29.73,WNW,289,8.0,16.0,80,0.00,,,0.00,meteohub,2013-10-28 08:51:00,
2013-10-28 01:56:00,52.5,46.6,29.73,WNW,291,7.0,16.0,80,0.00,,,0.00,meteohub,2013-10-28 08:56:00,
2013-10-28 02:02:00,52.7,46.4,29.73,WNW,289,5.0,17.0,79,0.00,,,0.00,meteohub,2013-10-28 09:02:00,
2013-10-28 02:07:00,52.5,46.2,29.73,WNW,287,4.0,17.0,79,0.00,,,0.00,meteohub,2013-10-28 09:07:00,
2013-10-28 02:12:00,52.5,46.6,29.73,WNW,287,0.0,17.0,80,0.00,,,0.00,meteohub,2013-10-28 09:12:00,
2013-10-28 02:17:00,52.5,46.2,29.73,WNW,287,0.0,13.0,79,0.00,,,0.00,meteohub,2013-10-28 09:17:00,
2013-10-28 02:22:00,52.3,46.0,29.73,WNW,287,0.0,8.0,79,0.00,,,0.00,meteohub,2013-10-28 09:22:00,
2013-10-28 02:27:00,52.2,45.9,29.73,WNW,287,0.0,3.0,79,0.00,,,0.00,meteohub,2013-10-28 09:27:00,
2013-10-28 02:32:00,52.2,45.9,29.73,WNW,287,0.0,2.0,79,0.00,,,0.00,meteohub,2013-10-28 09:32:00,
2013-10-28 02:37:00,52.0,45.7,29.73,WNW,287,0.0,2.0,79,0.00,,,0.00,meteohub,2013-10-28 09:37:00,
2013-10-28 02:42:00,52.0,45.7,29.73,WNW,287,0.0,4.0,79,0.00,,,0.00,meteohub,2013-10-28 09:42:00,
2013-10-28 02:47:00,52.0,45.7,29.73,WNW,287,0.0,4.0,79,0.00,,,0.00,meteohub,2013-10-28 09:47:00,
2013-10-28 02:52:00,52.0,45.7,29.73,WNW,287,5.0,5.0,79,0.00,,,0.00,meteohub,2013-10-28 09:52:00,
2013-10-28 02:57:00,52.0,45.3,29.73,WNW,289,4.0,6.0,78,0.00,,,0.00,meteohub,2013-10-28 09:57:00,
2013-10-28 03:02:00,51.8,45.1,29.73,WNW,297,5.0,7.0,78,0.00,,,0.00,meteohub,2013-10-28 10:02:00,
2013-10-28 03:07:00,51.6,45.0,29.73,WNW,302,4.0,7.0,78,0.00,,,0.00,meteohub,2013-10-28 10:07:00,
2013-10-28 03:12:00,51.6,45.0,29.73,NW,320,7.0,7.0,78,0.00,,,0.00,meteohub,2013-10-28 10:12:00,
2013-10-28 03:17:00,51.8,44.8,29.73,NW,318,6.0,10.0,77,0.00,,,0.00,meteohub,2013-10-28 10:17:00,
2013-10-28 03:22:00,51.6,44.6,29.73,NNW,333,2.0,10.0,77,0.00,,,0.00,meteohub,2013-10-28 10:22:00,
2013-10-28 03:27:00,51.6,44.6,29.73,NW,308,5.0,10.0,77,0.00,,,0.00,meteohub,2013-10-28 10:27:00,
2013-10-28 03:32:00,52.0,45.0,29.73,NW,322,4.0,10.0,77,0.00,,,0.00,meteohub,2013-10-28 10:32:00,
2013-10-28 03:37:00,52.0,44.6,29.73,NW,310,4.0,10.0,76,0.00,,,0.00,meteohub,2013-10-28 10:37:00,
2013-10-28 03:42:00,52.2,44.8,29.73,WNW,292,4.0,9.0,76,0.00,,,0.00,meteohub,2013-10-28 10:42:00,
2013-10-28 03:47:00,52.2,44.8,29.72,WNW,287,7.0,9.0,76,0.00,,,0.00,meteohub,2013-10-28 10:47:00,
2013-10-28 03:52:00,52.3,45.0,29.73,West,279,0.0,9.0,76,0.00,,,0.00,meteohub,2013-10-28 10:52:00,
2013-10-28 03:57:00,52.3,45.0,29.73,West,280,3.0,7.0,76,0.00,,,0.00,meteohub,2013-10-28 10:57:00,
2013-10-28 04:02:00,52.3,45.0,29.72,West,280,1.0,7.0,76,0.00,,,0.00,meteohub,2013-10-28 11:02:00,
2013-10-28 04:07:00,52.2,45.1,29.72,West,273,4.0,7.0,77,0.00,,,0.00,meteohub,2013-10-28 11:07:00,
2013-10-28 04:12:00,52.3,46.0,29.72,WNW,285,6.0,7.0,79,0.00,,,0.00,meteohub,2013-10-28 11:12:00,
2013-10-28 04:17:00,52.2,45.9,29.72,West,276,7.0,14.0,79,0.00,,,0.00,meteohub,2013-10-28 11:17:00,
2013-10-28 04:22:00,52.2,45.9,29.72,West,280,6.0,14.0,79,0.00,,,0.00,meteohub,2013-10-28 11:22:00,
2013-10-28 04:27:00,52.2,46.2,29.72,West,268,3.0,14.0,80,0.00,,,0.00,meteohub,2013-10-28 11:27:00,
2013-10-28 04:32:00,52.2,46.6,29.72,WNW,283,5.0,10.0,81,0.00,,,0.00,meteohub,2013-10-28 11:32:00,
2013-10-28 04:37:00,52.2,46.6,29.72,WNW,283,8.0,11.0,81,0.00,,,0.00,meteohub,2013-10-28 11:37:00,
2013-10-28 04:42:00,52.2,46.6,29.72,West,270,5.0,11.0,81,0.00,,,0.00,meteohub,2013-10-28 11:42:00,
2013-10-28 04:48:00,52.2,46.8,29.72,West,275,10.0,13.0,82,0.00,,,0.00,meteohub,2013-10-28 11:48:00,
2013-10-28 04:53:00,52.2,46.8,29.72,West,271,6.0,13.0,82,0.00,,,0.00,meteohub,2013-10-28 11:53:00,
2013-10-28 04:58:00,52.2,46.8,29.72,West,265,5.0,11.0,82,0.00,,,0.00,meteohub,2013-10-28 11:58:00,
2013-10-28 05:03:00,52.0,46.6,29.72,West,262,7.0,11.0,82,0.00,,,0.00,meteohub,2013-10-28 12:03:00,
2013-10-28 05:08:00,52.0,46.6,29.72,West,277,6.0,9.0,82,0.00,,,0.00,meteohub,2013-10-28 12:08:00,
2013-10-28 05:13:00,52.0,46.6,29.72,West,274,6.0,10.0,82,0.00,,,0.00,meteohub,2013-10-28 12:13:00,
2013-10-28 05:18:00,51.8,46.8,29.72,West,268,3.0,10.0,83,0.00,,,0.00,meteohub,2013-10-28 12:18:00,
2013-10-28 05:23:00,51.8,46.8,29.72,West,265,3.0,10.0,83,0.00,,,0.00,meteohub,2013-10-28 12:23:00,
2013-10-28 05:28:00,51.8,46.8,29.72,West,266,5.0,9.0,83,0.00,,,0.00,meteohub,2013-10-28 12:28:00,
2013-10-28 05:33:00,51.8,46.8,29.73,WNW,288,4.0,8.0,83,0.00,,,0.00,meteohub,2013-10-28 12:33:00,
2013-10-28 05:38:00,51.8,46.8,29.73,WNW,285,4.0,8.0,83,0.00,,,0.00,meteohub,2013-10-28 12:38:00,
2013-10-28 05:43:00,51.6,46.6,29.73,WNW,285,1.0,8.0,83,0.00,,,0.00,meteohub,2013-10-28 12:43:00,
2013-10-28 05:48:00,51.8,46.8,29.73,WNW,285,0.0,8.0,83,0.00,,,0.00,meteohub,2013-10-28 12:48:00,
2013-10-28 05:53:00,51.6,46.6,29.73,WNW,285,0.0,5.0,83,0.00,,,0.00,meteohub,2013-10-28 12:53:00,
2013-10-28 05:58:00,51.6,46.6,29.73,WNW,285,4.0,4.0,83,0.00,,,0.00,meteohub,2013-10-28 12:58:00,
2013-10-28 06:03:00,51.4,46.4,29.73,WNW,285,0.0,4.0,83,0.00,,,0.00,meteohub,2013-10-28 13:03:00,
2013-10-28 06:08:00,51.3,46.2,29.73,WNW,285,1.0,4.0,83,0.00,,,0.00,meteohub,2013-10-28 13:08:00,
2013-10-28 06:13:00,49.8,44.8,29.73,WNW,285,1.0,4.0,83,0.00,,,0.00,meteohub,2013-10-28 13:13:00,
2013-10-28 06:18:00,49.1,44.4,29.73,WNW,285,1.0,4.0,84,0.00,,,0.00,meteohub,2013-10-28 13:18:00,
2013-10-28 06:23:00,48.9,44.6,29.73,WNW,284,0.0,4.0,85,0.00,,,0.00,meteohub,2013-10-28 13:23:00,
2013-10-28 06:28:00,49.3,45.3,29.73,WNW,285,0.0,4.0,86,0.00,,,0.00,meteohub,2013-10-28 13:28:00,
2013-10-28 06:34:00,49.3,45.0,29.73,WNW,285,0.0,2.0,85,0.00,,,0.00,meteohub,2013-10-28 13:34:00,
2013-10-28 06:39:00,48.9,44.6,29.73,WNW,284,0.0,2.0,85,0.00,,,0.00,meteohub,2013-10-28 13:39:00,
2013-10-28 06:44:00,48.7,44.8,29.73,WNW,284,0.0,1.0,86,0.00,,,0.00,meteohub,2013-10-28 13:44:00,
2013-10-28 06:49:00,48.6,44.6,29.73,WNW,285,0.0,2.0,86,0.00,,,0.00,meteohub,2013-10-28 13:49:00,
2013-10-28 06:54:00,48.6,44.8,29.73,WNW,285,0.0,2.0,87,0.00,,,0.00,meteohub,2013-10-28 13:54:00,
2013-10-28 06:59:00,48.6,44.8,29.73,WNW,285,2.0,2.0,87,0.00,,,0.00,meteohub,2013-10-28 13:59:00,
2013-10-28 07:04:00,48.2,44.6,29.73,WNW,285,0.0,2.0,87,0.00,,,0.00,meteohub,2013-10-28 14:04:00,
2013-10-28 07:09:00,48.0,44.4,29.73,WNW,285,0.0,2.0,87,0.00,,,0.00,meteohub,2013-10-28 14:09:00,
2013-10-28 07:14:00,48.2,44.8,29.73,WNW,286,0.0,2.0,88,0.00,,,0.00,meteohub,2013-10-28 14:14:00,
2013-10-28 07:19:00,47.8,44.2,29.73,WNW,285,2.0,2.0,87,0.00,,,0.00,meteohub,2013-10-28 14:19:00,
2013-10-28 07:24:00,47.7,44.2,29.73,WNW,283,3.0,3.0,88,0.00,,,0.00,meteohub,2013-10-28 14:24:00,
2013-10-28 07:29:00,47.8,44.8,29.73,WNW,284,0.0,4.0,89,0.00,,,0.00,meteohub,2013-10-28 14:29:00,
2013-10-28 07:34:00,48.6,45.7,29.73,WNW,283,0.0,4.0,90,0.00,,,0.00,meteohub,2013-10-28 14:34:00,
2013-10-28 07:39:00,48.6,45.5,29.73,WNW,284,1.0,4.0,89,0.00,,,0.00,meteohub,2013-10-28 14:39:00,
2013-10-28 07:44:00,48.7,45.7,29.74,WNW,283,0.0,2.0,89,0.00,,,0.00,meteohub,2013-10-28 14:44:00,
2013-10-28 07:49:00,48.9,45.9,29.74,WNW,285,0.0,2.0,89,0.00,,,0.00,meteohub,2013-10-28 14:49:00,
2013-10-28 07:54:00,48.9,45.9,29.74,WNW,284,1.0,2.0,89,0.00,,,0.00,meteohub,2013-10-28 14:54:00,
2013-10-28 07:59:00,48.7,45.3,29.75,WNW,283,1.0,2.0,88,0.00,,,0.00,meteohub,2013-10-28 14:59:00,
2013-10-28 08:04:00,48.7,45.7,29.75,WNW,282,0.0,3.0,89,0.00,,,0.00,meteohub,2013-10-28 15:04:00,
2013-10-28 08:09:00,49.1,46.0,29.75,West,281,0.0,3.0,89,0.00,,,0.00,meteohub,2013-10-28 15:09:00,
2013-10-28 08:14:00,49.5,46.4,29.75,WNW,282,0.0,3.0,89,0.00,,,0.00,meteohub,2013-10-28 15:14:00,
2013-10-28 08:19:00,50.0,46.9,29.75,WNW,282,0.0,2.0,89,0.00,,,0.00,meteohub,2013-10-28 15:19:00,
2013-10-28 08:24:00,50.4,46.9,29.76,WNW,283,0.0,1.0,88,0.00,,,0.00,meteohub,2013-10-28 15:24:00,
2013-10-28 08:29:00,50.5,46.8,29.76,WNW,284,0.0,0.0,87,0.00,,,0.00,meteohub,2013-10-28 15:29:00,
2013-10-28 08:34:00,51.1,47.1,29.76,WNW,284,1.0,1.0,86,0.00,,,0.00,meteohub,2013-10-28 15:34:00,
2013-10-28 08:39:00,51.3,47.3,29.77,WNW,283,1.0,1.0,86,0.00,,,0.00,meteohub,2013-10-28 15:39:00,
2013-10-28 08:44:00,51.4,47.5,29.77,WNW,282,0.0,2.0,86,0.00,,,0.00,meteohub,2013-10-28 15:44:00,
2013-10-28 08:49:00,52.2,47.8,29.77,WNW,283,1.0,2.0,85,0.00,,,0.00,meteohub,2013-10-28 15:49:00,
2013-10-28 08:54:00,52.7,48.0,29.77,WNW,283,1.0,2.0,84,0.00,,,0.00,meteohub,2013-10-28 15:54:00,
2013-10-28 08:59:00,53.2,48.2,29.77,WNW,283,0.0,2.0,83,0.00,,,0.00,meteohub,2013-10-28 15:59:00,
2013-10-28 09:04:00,53.4,48.0,29.77,SSW,209,2.0,3.0,82,0.00,,,0.00,meteohub,2013-10-28 16:04:00,
2013-10-28 09:09:00,53.4,47.7,29.77,South,182,2.0,4.0,81,0.00,,,0.00,meteohub,2013-10-28 16:09:00,
2013-10-28 09:14:00,53.6,47.8,29.77,SSE,154,3.0,4.0,81,0.00,,,0.00,meteohub,2013-10-28 16:14:00,
2013-10-28 09:19:00,53.4,47.5,29.77,SE,129,3.0,5.0,80,0.00,,,0.00,meteohub,2013-10-28 16:19:00,
2013-10-28 09:24:00,53.6,47.7,29.77,SE,129,2.0,5.0,80,0.00,,,0.00,meteohub,2013-10-28 16:24:00,
2013-10-28 09:30:00,54.1,48.0,29.77,SE,131,1.0,6.0,80,0.00,,,0.00,meteohub,2013-10-28 16:30:00,
2013-10-28 09:35:00,54.3,47.7,29.77,SE,132,0.0,6.0,78,0.00,,,0.00,meteohub,2013-10-28 16:35:00,
2013-10-28 09:40:00,54.9,48.6,29.78,SE,132,0.0,4.0,79,0.00,,,0.00,meteohub,2013-10-28 16:40:00,
2013-10-28 09:45:00,55.6,48.6,29.77,SE,146,3.0,4.0,77,0.00,,,0.00,meteohub,2013-10-28 16:45:00,
2013-10-28 09:50:00,55.2,47.8,29.77,SSW,205,4.0,4.0,76,0.00,,,0.00,meteohub,2013-10-28 16:50:00,
2013-10-28 09:55:00,54.9,47.8,29.77,SSW,208,0.0,6.0,77,0.00,,,0.00,meteohub,2013-10-28 16:55:00,
2013-10-28 10:00:00,55.4,48.4,29.77,SSW,206,4.0,6.0,77,0.00,,,0.00,meteohub,2013-10-28 17:00:00,
2013-10-28 10:05:00,55.0,47.7,29.77,SSW,213,4.0,6.0,76,0.00,,,0.00,meteohub,2013-10-28 17:05:00,
2013-10-28 10:10:00,55.0,47.7,29.77,South,191,4.0,7.0,76,0.00,,,0.00,meteohub,2013-10-28 17:10:00,
2013-10-28 10:15:00,55.0,48.0,29.77,South,183,6.0,7.0,77,0.00,,,0.00,meteohub,2013-10-28 17:15:00,
2013-10-28 10:20:00,54.9,47.5,29.77,SSW,209,6.0,7.0,76,0.00,,,0.00,meteohub,2013-10-28 17:20:00,
2013-10-28 10:25:00,54.9,47.5,29.77,SSW,201,5.0,9.0,76,0.00,,,0.00,meteohub,2013-10-28 17:25:00,
2013-10-28 10:30:00,54.9,47.8,29.77,SSW,201,4.0,9.0,77,0.00,,,0.00,meteohub,2013-10-28 17:30:00,
2013-10-28 10:35:00,55.0,48.4,29.77,SW,218,8.0,9.0,78,0.00,,,0.00,meteohub,2013-10-28 17:35:00,
2013-10-28 10:40:00,54.9,48.2,29.78,SSW,204,7.0,10.0,78,0.00,,,0.00,meteohub,2013-10-28 17:40:00,
2013-10-28 10:45:00,55.0,48.4,29.78,SSW,204,7.0,10.0,78,0.00,,,0.00,meteohub,2013-10-28 17:45:00,
2013-10-28 10:50:00,55.0,48.4,29.78,SSW,207,7.0,10.0,78,0.00,,,0.00,meteohub,2013-10-28 17:50:00,
2013-10-28 10:55:00,55.0,47.7,29.78,SSW,203,5.0,10.0,76,0.00,,,0.00,meteohub,2013-10-28 17:55:00,
2013-10-28 11:00:00,55.6,48.6,29.78,SSE,156,6.0,10.0,77,0.00,,,0.00,meteohub,2013-10-28 18:00:00,
2013-10-28 11:05:00,55.8,48.0,29.78,SSW,201,6.0,10.0,75,0.00,,,0.00,meteohub,2013-10-28 18:05:00,
2013-10-28 11:10:00,55.4,48.0,29.78,SW,220,6.0,10.0,76,0.00,,,0.00,meteohub,2013-10-28 18:10:00,
2013-10-28 11:15:00,55.4,48.0,29.78,South,176,10.0,10.0,76,0.00,,,0.00,meteohub,2013-10-28 18:15:00,
2013-10-28 11:20:00,55.9,47.8,29.78,South,186,6.0,10.0,74,0.00,,,0.00,meteohub,2013-10-28 18:20:00,
2013-10-28 11:25:00,55.9,48.2,29.78,SSE,161,2.0,12.0,75,0.00,,,0.00,meteohub,2013-10-28 18:25:00,
2013-10-28 11:30:00,56.7,48.0,29.78,South,174,8.0,12.0,73,0.00,,,0.00,meteohub,2013-10-28 18:30:00,
2013-10-28 11:35:00,57.2,48.9,29.78,South,181,5.0,12.0,74,0.00,,,0.00,meteohub,2013-10-28 18:35:00,
2013-10-28 11:40:00,57.0,48.4,29.78,SSE,162,9.0,10.0,73,0.00,,,0.00,meteohub,2013-10-28 18:40:00,
2013-10-28 11:45:00,56.8,48.2,29.78,SSE,162,8.0,11.0,73,0.00,,,0.00,meteohub,2013-10-28 18:45:00,
2013-10-28 11:50:00,57.0,48.7,29.78,South,169,6.0,11.0,74,0.00,,,0.00,meteohub,2013-10-28 18:50:00,
2013-10-28 11:55:00,57.4,49.1,29.78,South,187,3.0,11.0,74,0.00,,,0.00,meteohub,2013-10-28 18:55:00,
2013-10-28 12:00:00,57.6,48.9,29.78,SSW,209,10.0,12.0,73,0.00,,,0.00,meteohub,2013-10-28 19:00:00,
2013-10-28 12:05:00,56.7,48.0,29.78,SSW,204,10.0,12.0,73,0.00,,,0.00,meteohub,2013-10-28 19:05:00,
2013-10-28 12:10:00,56.7,48.4,29.78,SSW,206,9.0,12.0,74,0.00,,,0.00,meteohub,2013-10-28 19:10:00,
2013-10-28 12:15:00,56.5,48.0,29.78,SSW,197,8.0,12.0,73,0.00,,,0.00,meteohub,2013-10-28 19:15:00,
2013-10-28 12:21:00,56.7,48.4,29.77,SSW,213,11.0,13.0,74,0.00,,,0.00,meteohub,2013-10-28 19:21:00,
2013-10-28 12:26:00,56.8,47.8,29.77,South,174,9.0,13.0,72,0.00,,,0.00,meteohub,2013-10-28 19:26:00,
2013-10-28 12:31:00,57.0,47.7,29.77,SSW,196,12.0,14.0,71,0.00,,,0.00,meteohub,2013-10-28 19:31:00,
2013-10-28 12:36:00,56.8,47.5,29.77,SSW,205,8.0,14.0,71,0.00,,,0.00,meteohub,2013-10-28 19:36:00,
2013-10-28 12:41:00,57.4,48.0,29.77,SSW,206,12.0,14.0,71,0.00,,,0.00,meteohub,2013-10-28 19:41:00,
2013-10-28 12:46:00,57.0,48.7,29.77,SSW,206,11.0,14.0,74,0.00,,,0.00,meteohub,2013-10-28 19:46:00,
2013-10-28 12:51:00,57.0,49.1,29.77,SSW,201,12.0,14.0,75,0.00,,,0.00,meteohub,2013-10-28 19:51:00,
2013-10-28 12:56:00,56.8,48.2,29.77,SSW,210,12.0,14.0,73,0.00,,,0.00,meteohub,2013-10-28 19:56:00,
2013-10-28 13:01:00,56.8,48.6,29.77,South,186,8.0,15.0,74,0.00,,,0.00,meteohub,2013-10-28 20:01:00,
2013-10-28 13:06:00,56.8,48.2,29.77,SSW,193,6.0,15.0,73,0.00,,,0.00,meteohub,2013-10-28 20:06:00,
2013-10-28 13:11:00,57.7,49.1,29.76,SSW,198,7.0,15.0,73,0.00,,,0.00,meteohub,2013-10-28 20:11:00,
2013-10-28 13:16:00,57.9,49.6,29.76,South,185,9.0,14.0,74,0.00,,,0.00,meteohub,2013-10-28 20:16:00,
2013-10-28 13:21:00,57.9,48.9,29.76,South,174,6.0,13.0,72,0.00,,,0.00,meteohub,2013-10-28 20:21:00,
2013-10-28 13:26:00,57.7,48.0,29.76,South,191,7.0,13.0,70,0.00,,,0.00,meteohub,2013-10-28 20:26:00,
2013-10-28 13:31:00,57.6,47.5,29.76,SSW,213,10.0,13.0,69,0.00,,,0.00,meteohub,2013-10-28 20:31:00,
2013-10-28 13:36:00,57.7,48.7,29.75,SSW,195,6.0,14.0,72,0.00,,,0.00,meteohub,2013-10-28 20:36:00,
2013-10-28 13:41:00,57.7,49.8,29.75,SSW,199,11.0,14.0,75,0.00,,,0.00,meteohub,2013-10-28 20:41:00,
2013-10-28 13:46:00,57.6,49.6,29.75,SSW,194,7.0,13.0,75,0.00,,,0.00,meteohub,2013-10-28 20:46:00,
2013-10-28 13:51:00,57.9,50.4,29.75,SSW,201,11.0,13.0,76,0.00,,,0.00,meteohub,2013-10-28 20:51:00,
2013-10-28 13:56:00,57.6,49.6,29.75,SSW,194,8.0,13.0,75,0.00,,,0.00,meteohub,2013-10-28 20:56:00,
2013-10-28 14:01:00,57.4,49.8,29.75,South,190,13.0,13.0,76,0.00,,,0.00,meteohub,2013-10-28 21:01:00,
2013-10-28 14:06:00,57.7,50.5,29.75,SSW,193,3.0,14.0,77,0.00,,,0.00,meteohub,2013-10-28 21:06:00,
2013-10-28 14:11:00,57.4,49.8,29.75,SSW,213,8.0,14.0,76,0.00,,,0.00,meteohub,2013-10-28 21:11:00,
2013-10-28 14:16:00,56.7,49.8,29.75,SSW,208,8.0,16.0,78,0.00,,,0.00,meteohub,2013-10-28 21:16:00,
2013-10-28 14:21:00,56.7,50.2,29.75,SSW,198,5.0,16.0,79,0.00,,,0.00,meteohub,2013-10-28 21:21:00,
2013-10-28 14:26:00,57.0,49.8,29.75,SSW,193,12.0,16.0,77,0.00,,,0.00,meteohub,2013-10-28 21:26:00,
2013-10-28 14:31:00,57.0,50.2,29.75,SSW,213,6.0,15.0,78,0.00,,,0.00,meteohub,2013-10-28 21:31:00,
2013-10-28 14:36:00,56.8,49.6,29.75,SSW,204,9.0,17.0,77,0.00,,,0.00,meteohub,2013-10-28 21:36:00,
2013-10-28 14:41:00,56.7,49.8,29.75,SSW,201,7.0,17.0,78,0.00,,,0.00,meteohub,2013-10-28 21:41:00,
2013-10-28 14:46:00,57.0,50.2,29.75,SSE,157,9.0,17.0,78,0.00,,,0.00,meteohub,2013-10-28 21:46:00,
2013-10-28 14:51:00,57.2,50.0,29.75,SSE,151,6.0,16.0,77,0.00,,,0.00,meteohub,2013-10-28 21:51:00,
2013-10-28 14:56:00,57.0,50.2,29.75,SE,136,8.0,14.0,78,0.00,,,0.00,meteohub,2013-10-28 21:56:00,
2013-10-28 15:01:00,56.7,49.8,29.75,South,174,12.0,15.0,78,0.00,,,0.00,meteohub,2013-10-28 22:01:00,
2013-10-28 15:06:00,56.7,49.5,29.75,SSE,162,9.0,15.0,77,0.00,,,0.00,meteohub,2013-10-28 22:06:00,
2013-10-28 15:11:00,56.5,49.6,29.75,South,171,12.0,15.0,78,0.00,,,0.00,meteohub,2013-10-28 22:11:00,
2013-10-28 15:16:00,56.1,49.3,29.76,South,173,12.0,15.0,78,0.00,,,0.00,meteohub,2013-10-28 22:16:00,
2013-10-28 15:22:00,56.1,49.6,29.76,SSE,154,12.0,15.0,79,0.00,,,0.00,meteohub,2013-10-28 22:22:00,
2013-10-28 15:27:00,56.1,49.3,29.76,SE,141,9.0,15.0,78,0.00,,,0.00,meteohub,2013-10-28 22:27:00,
2013-10-28 15:32:00,56.1,49.6,29.76,SSE,168,11.0,17.0,79,0.00,,,0.00,meteohub,2013-10-28 22:32:00,
2013-10-28 15:37:00,56.5,50.0,29.76,SE,143,8.0,17.0,79,0.00,,,0.00,meteohub,2013-10-28 22:37:00,
2013-10-28 15:42:00,56.5,49.6,29.76,SSE,154,14.0,18.0,78,0.00,,,0.00,meteohub,2013-10-28 22:42:00,
2013-10-28 15:47:00,56.7,50.2,29.76,SE,135,7.0,18.0,79,0.00,,,0.00,meteohub,2013-10-28 22:47:00,
2013-10-28 15:52:00,56.7,49.8,29.76,SSE,154,5.0,18.0,78,0.00,,,0.00,meteohub,2013-10-28 22:52:00,
2013-10-28 15:57:00,56.7,49.8,29.76,ESE,122,9.0,15.0,78,0.00,,,0.00,meteohub,2013-10-28 22:57:00,
2013-10-28 16:02:00,56.5,49.6,29.76,SE,145,9.0,15.0,78,0.00,,,0.00,meteohub,2013-10-28 23:02:00,
2013-10-28 16:07:00,56.7,49.8,29.76,SSE,149,6.0,14.0,78,0.00,,,0.00,meteohub,2013-10-28 23:07:00,
2013-10-28 16:12:00,56.7,49.8,29.76,SSE,149,11.0,14.0,78,0.00,,,0.00,meteohub,2013-10-28 23:12:00,
2013-10-28 16:17:00,56.5,49.6,29.76,SE,135,13.0,16.0,78,0.00,,,0.00,meteohub,2013-10-28 23:17:00,
2013-10-28 16:22:00,56.3,49.8,29.76,SSE,161,6.0,17.0,79,0.00,,,0.00,meteohub,2013-10-28 23:22:00,
2013-10-28 16:27:00,56.3,49.8,29.76,SE,132,11.0,17.0,79,0.00,,,0.00,meteohub,2013-10-28 23:27:00,
2013-10-28 16:32:00,56.1,49.6,29.76,SSE,150,10.0,16.0,79,0.00,,,0.00,meteohub,2013-10-28 23:32:00,
2013-10-28 16:37:00,56.5,50.0,29.76,SSE,154,8.0,16.0,79,0.00,,,0.00,meteohub,2013-10-28 23:37:00,
2013-10-28 16:42:00,56.5,49.6,29.76,SE,137,10.0,16.0,78,0.00,,,0.00,meteohub,2013-10-28 23:42:00,
2013-10-28 16:47:00,56.5,50.4,29.76,SE,145,10.0,14.0,80,0.00,,,0.00,meteohub,2013-10-28 23:47:00,
2013-10-28 16:52:00,56.1,50.0,29.77,SSE,151,10.0,14.0,80,0.00,,,0.00,meteohub,2013-10-28 23:52:00,
2013-10-28 16:57:00,56.5,50.4,29.77,SSE,150,7.0,14.0,80,0.00,,,0.00,meteohub,2013-10-28 23:57:00,
2013-10-28 17:02:00,56.5,50.4,29.77,SE,130,9.0,14.0,80,0.00,,,0.00,meteohub,2013-10-29 00:02:00,
2013-10-28 17:07:00,56.1,49.6,29.77,SE,144,7.0,14.0,79,0.00,,,0.00,meteohub,2013-10-29 00:07:00,
2013-10-28 17:12:00,56.5,50.0,29.77,SE,127,8.0,14.0,79,0.00,,,0.00,meteohub,2013-10-29 00:12:00,
2013-10-28 17:17:00,56.5,50.0,29.77,SE,143,5.0,14.0,79,0.00,,,0.00,meteohub,2013-10-29 00:17:00,
2013-10-28 17:22:00,56.5,49.6,29.77,SE,131,7.0,12.0,78,0.00,,,0.00,meteohub,2013-10-29 00:22:00,
2013-10-28 17:27:00,56.7,49.8,29.77,SE,140,5.0,12.0,78,0.00,,,0.00,meteohub,2013-10-29 00:27:00,
2013-10-28 17:32:00,56.8,49.6,29.77,ESE,120,4.0,12.0,77,0.00,,,0.00,meteohub,2013-10-29 00:32:00,
2013-10-28 17:37:00,56.8,49.3,29.77,ESE,123,3.0,12.0,76,0.00,,,0.00,meteohub,2013-10-29 00:37:00,
2013-10-28 17:42:00,57.4,50.2,29.77,SE,125,3.0,10.0,77,0.00,,,0.00,meteohub,2013-10-29 00:42:00,
2013-10-28 17:47:00,57.6,50.0,29.77,SE,138,1.0,10.0,76,0.00,,,0.00,meteohub,2013-10-29 00:47:00,
2013-10-28 17:52:00,57.7,50.2,29.77,SE,138,0.0,5.0,76,0.00,,,0.00,meteohub,2013-10-29 00:52:00,
2013-10-28 17:57:00,57.7,48.0,29.78,West,276,10.0,10.0,70,0.00,,,0.00,meteohub,2013-10-29 00:57:00,
2013-10-28 18:02:00,57.6,46.8,29.78,West,276,9.0,13.0,67,0.00,,,0.00,meteohub,2013-10-29 01:02:00,
2013-10-28 18:07:00,57.2,46.8,29.78,West,271,8.0,13.0,68,0.00,,,0.00,meteohub,2013-10-29 01:07:00,
2013-10-28 18:12:00,56.8,47.1,29.79,WSW,252,8.0,13.0,70,0.00,,,0.00,meteohub,2013-10-29 01:12:00,
2013-10-28 18:17:00,56.8,48.6,29.79,SW,226,6.0,13.0,74,0.00,,,0.00,meteohub,2013-10-29 01:17:00,
2013-10-28 18:23:00,56.3,48.9,29.79,SW,223,6.0,13.0,76,0.00,,,0.00,meteohub,2013-10-29 01:23:00,
2013-10-28 18:28:00,55.8,48.9,29.79,SW,225,8.0,11.0,78,0.00,,,0.00,meteohub,2013-10-29 01:28:00,
2013-10-28 18:33:00,55.6,49.1,29.79,SW,218,7.0,11.0,79,0.00,,,0.00,meteohub,2013-10-29 01:33:00,
2013-10-28 18:38:00,55.2,49.1,29.79,SW,222,4.0,11.0,80,0.00,,,0.00,meteohub,2013-10-29 01:38:00,
2013-10-28 18:43:00,54.9,49.1,29.80,SW,217,7.0,11.0,81,0.00,,,0.00,meteohub,2013-10-29 01:43:00,
2013-10-28 18:48:00,54.3,48.9,29.80,WSW,241,8.0,12.0,82,0.00,,,0.00,meteohub,2013-10-29 01:48:00,
2013-10-28 18:53:00,54.1,49.1,29.80,SW,228,9.0,13.0,83,0.00,,,0.00,meteohub,2013-10-29 01:53:00,
2013-10-28 18:58:00,54.1,49.5,29.80,WSW,242,7.0,13.0,84,0.00,,,0.00,meteohub,2013-10-29 01:58:00,
2013-10-28 19:03:00,54.0,49.6,29.80,WSW,249,8.0,13.0,85,0.00,,,0.00,meteohub,2013-10-29 02:03:00,
2013-10-28 19:08:00,54.0,49.6,29.80,SW,235,6.0,12.0,85,0.00,,,0.00,meteohub,2013-10-29 02:08:00,
2013-10-28 19:13:00,53.8,49.6,29.80,WSW,243,8.0,12.0,86,0.00,,,0.00,meteohub,2013-10-29 02:13:00,
2013-10-28 19:18:00,53.8,49.6,29.81,SW,228,2.0,11.0,86,0.00,,,0.00,meteohub,2013-10-29 02:18:00,
2013-10-28 19:23:00,53.8,49.6,29.81,WSW,245,4.0,11.0,86,0.00,,,0.00,meteohub,2013-10-29 02:23:00,
2013-10-28 19:28:00,53.8,49.6,29.81,SW,235,4.0,11.0,86,0.00,,,0.00,meteohub,2013-10-29 02:28:00,
2013-10-28 19:33:00,53.8,49.6,29.81,WSW,247,9.0,9.0,86,0.00,,,0.00,meteohub,2013-10-29 02:33:00,
2013-10-28 19:38:00,53.8,49.6,29.81,WSW,244,9.0,10.0,86,0.00,,,0.00,meteohub,2013-10-29 02:38:00,
2013-10-28 19:43:00,53.8,49.6,29.81,SW,232,7.0,11.0,86,0.00,,,0.00,meteohub,2013-10-29 02:43:00,
2013-10-28 19:48:00,53.8,49.6,29.82,WSW,244,6.0,12.0,86,0.00,,,0.00,meteohub,2013-10-29 02:48:00,
2013-10-28 19:53:00,53.8,49.6,29.82,SW,235,5.0,12.0,86,0.00,,,0.00,meteohub,2013-10-29 02:53:00,
2013-10-28 19:58:00,53.8,49.6,29.82,SW,233,3.0,12.0,86,0.00,,,0.00,meteohub,2013-10-29 02:58:00,
2013-10-28 20:03:00,53.8,49.6,29.82,SW,233,6.0,11.0,86,0.00,,,0.00,meteohub,2013-10-29 03:03:00,
2013-10-28 20:08:00,53.8,49.6,29.82,SW,233,3.0,7.0,86,0.00,,,0.00,meteohub,2013-10-29 03:08:00,
2013-10-28 20:13:00,53.8,49.6,29.82,SW,233,3.0,7.0,86,0.00,,,0.00,meteohub,2013-10-29 03:13:00,
2013-10-28 20:18:00,54.0,49.8,29.82,SW,233,2.0,7.0,86,0.00,,,0.00,meteohub,2013-10-29 03:18:00,
2013-10-28 20:23:00,54.0,49.6,29.83,SW,233,1.0,7.0,85,0.00,,,0.00,meteohub,2013-10-29 03:23:00,
2013-10-28 20:28:00,54.0,49.6,29.83,SW,231,4.0,7.0,85,0.00,,,0.00,meteohub,2013-10-29 03:28:00,
2013-10-28 20:33:00,54.0,49.6,29.83,SW,218,2.0,6.0,85,0.00,,,0.00,meteohub,2013-10-29 03:33:00,
2013-10-28 20:38:00,54.0,49.6,29.83,SW,231,2.0,7.0,85,0.00,,,0.00,meteohub,2013-10-29 03:38:00,
2013-10-28 20:43:00,54.0,49.6,29.83,SW,231,2.0,7.0,85,0.00,,,0.00,meteohub,2013-10-29 03:43:00,
2013-10-28 20:48:00,54.0,49.8,29.83,SW,231,8.0,8.0,86,0.00,,,0.00,meteohub,2013-10-29 03:48:00,
2013-10-28 20:54:00,54.0,49.6,29.84,SW,233,4.0,8.0,85,0.00,,,0.00,meteohub,2013-10-29 03:54:00,
2013-10-28 20:59:00,54.1,49.8,29.84,SW,233,6.0,10.0,85,0.00,,,0.00,meteohub,2013-10-29 03:59:00,
2013-10-28 21:01:00,54.0,49.6,29.84,SW,234,5.0,10.0,85,0.00,,,0.00,meteohub,2013-10-29 04:01:00,
2013-10-28 21:02:00,54.0,49.6,29.84,SW,234,6.0,10.0,85,0.00,,,0.00,meteohub,2013-10-29 04:02:00,
2013-10-28 21:04:00,54.0,49.6,29.84,SW,234,4.0,10.0,85,0.00,,,0.00,meteohub,2013-10-29 04:04:00,
2013-10-28 21:09:00,54.0,49.6,29.85,SW,234,4.0,10.0,85,0.00,,,0.00,meteohub,2013-10-29 04:09:00,
2013-10-28 21:14:00,54.0,49.8,29.85,SW,233,4.0,8.0,86,0.00,,,0.00,meteohub,2013-10-29 04:14:00,
2013-10-28 21:19:00,54.0,49.8,29.85,SW,233,0.0,6.0,86,0.00,,,0.00,meteohub,2013-10-29 04:19:00,
2013-10-28 21:24:00,54.0,49.8,29.85,SW,229,3.0,6.0,86,0.00,,,0.00,meteohub,2013-10-29 04:24:00,
2013-10-28 21:29:00,54.0,49.8,29.85,SW,229,3.0,6.0,86,0.00,,,0.00,meteohub,2013-10-29 04:29:00,
2013-10-28 21:34:00,54.0,49.8,29.86,SW,229,1.0,6.0,86,0.00,,,0.00,meteohub,2013-10-29 04:34:00,
2013-10-28 21:39:00,54.0,49.6,29.86,SW,229,0.0,6.0,85,0.00,,,0.00,meteohub,2013-10-29 04:39:00,
2013-10-28 21:44:00,54.1,49.8,29.86,SW,229,2.0,5.0,85,0.00,,,0.00,meteohub,2013-10-29 04:44:00,
2013-10-28 21:49:00,54.1,49.8,29.86,SW,228,5.0,5.0,85,0.00,,,0.00,meteohub,2013-10-29 04:49:00,
2013-10-28 21:54:00,54.3,49.8,29.86,SW,226,5.0,6.0,85,0.00,,,0.00,meteohub,2013-10-29 04:54:00,
2013-10-28 21:59:00,54.3,49.8,29.86,SW,221,5.0,6.0,85,0.00,,,0.00,meteohub,2013-10-29 04:59:00,
2013-10-28 22:04:00,54.3,49.8,29.86,SW,230,5.0,9.0,85,0.00,,,0.00,meteohub,2013-10-29 05:04:00,
2013-10-28 22:09:00,54.3,49.8,29.87,SW,229,7.0,9.0,85,0.00,,,0.00,meteohub,2013-10-29 05:09:00,
2013-10-28 22:14:00,54.1,49.8,29.87,SW,230,3.0,9.0,85,0.00,,,0.00,meteohub,2013-10-29 05:14:00,
2013-10-28 22:19:00,54.3,49.8,29.87,SW,229,4.0,9.0,85,0.00,,,0.00,meteohub,2013-10-29 05:19:00,
2013-10-28 22:24:00,54.1,49.8,29.87,SW,228,4.0,9.0,85,0.00,,,0.00,meteohub,2013-10-29 05:24:00,
2013-10-28 22:29:00,54.1,49.8,29.87,SW,224,1.0,8.0,85,0.00,,,0.00,meteohub,2013-10-29 05:29:00,
2013-10-28 22:34:00,54.1,49.8,29.87,SW,224,2.0,7.0,85,0.00,,,0.00,meteohub,2013-10-29 05:34:00,
2013-10-28 22:39:00,54.1,49.8,29.87,SW,225,0.0,7.0,85,0.00,,,0.00,meteohub,2013-10-29 05:39:00,
2013-10-28 22:44:00,54.1,49.8,29.88,SW,225,2.0,6.0,85,0.00,,,0.00,meteohub,2013-10-29 05:44:00,
2013-10-28 22:49:00,54.1,49.8,29.88,SW,215,7.0,7.0,85,0.00,,,0.00,meteohub,2013-10-29 05:49:00,
2013-10-28 22:54:00,54.1,49.8,29.88,WSW,248,11.0,11.0,85,0.00,,,0.00,meteohub,2013-10-29 05:54:00,
2013-10-28 22:59:00,54.1,49.8,29.88,SW,230,4.0,8.0,85,0.00,,,0.00,meteohub,2013-10-29 05:59:00,
2013-10-28 23:04:00,54.1,49.8,29.88,SW,235,9.0,12.0,85,0.00,,,0.00,meteohub,2013-10-29 06:04:00,
2013-10-28 23:09:00,54.1,50.0,29.88,WSW,248,9.0,12.0,86,0.00,,,0.00,meteohub,2013-10-29 06:09:00,
2013-10-28 23:14:00,54.1,50.0,29.88,WSW,238,9.0,14.0,86,0.00,,,0.00,meteohub,2013-10-29 06:14:00,
2013-10-28 23:19:00,54.1,49.8,29.88,WSW,241,11.0,14.0,85,0.00,,,0.00,meteohub,2013-10-29 06:19:00,
2013-10-28 23:24:00,54.3,49.8,29.89,WSW,251,10.0,12.0,85,0.00,,,0.00,meteohub,2013-10-29 06:24:00,
2013-10-28 23:29:00,54.3,49.8,29.89,SW,227,7.0,15.0,85,0.00,,,0.00,meteohub,2013-10-29 06:29:00,
2013-10-28 23:34:00,54.3,49.8,29.89,SW,226,6.0,15.0,85,0.00,,,0.00,meteohub,2013-10-29 06:34:00,
2013-10-28 23:39:00,54.3,49.8,29.89,SW,230,4.0,15.0,85,0.00,,,0.00,meteohub,2013-10-29 06:39:00,
2013-10-28 23:44:00,54.3,49.8,29.89,SW,220,4.0,13.0,85,0.00,,,0.00,meteohub,2013-10-29 06:44:00,
2013-10-28 23:49:00,54.5,50.0,29.89,SW,219,6.0,11.0,85,0.00,,,0.00,meteohub,2013-10-29 06:49:00,
2013-10-28 23:54:00,54.3,49.6,29.89,WSW,241,8.0,10.0,84,0.00,,,0.00,meteohub,2013-10-29 06:54:00,